KEVW/EVW METAR and TAF weather

Enter ICAO airport designator
Station Type Date Time Source
KEVW METAR 2022/01/28 23:53 UTC NOAA

KEVW 282353Z AUTO 21006KT 10SM CLR M06/M16 A3049 RMK AO2 SLP387 T10561156 11056 21094 58004


Station Type Date Time Source
KEVW Decoded METAR 2022/01/28 23:53 UTC NOAA

EVANSTON-UINTA COUNTY FIELD, WY, United States (KEVW) 41-16N 111-02W 2177M
Jan 28, 2022 - 06:53 PM EST / 2022.01.28 2353 UTC
Wind: from the SSW (210 degrees) at 7 MPH (6 KT):0
Visibility: 10 mile(s):0
Sky conditions: clear
Temperature: 21.9 F (-5.6 C)
Windchill: 14 F (-10 C):1
Dew Point: 3.9 F (-15.6 C)
Relative Humidity: 45%
Pressure (altimeter): 30.49 in. Hg (1032 hPa)
Pressure tendency: 0.01 inches (0.4 hPa) lower than three hours ago
ob: KEVW 282353Z AUTO 21006KT 10SM CLR M06/M16 A3049 RMK AO2 SLP387 T10561156 11056 21094 58004
cycle: 0

Station Type Date Time Source
KEVW TAF 2022/01/28 18:27 UTC NOAA

TAF KEVW 281723Z 2818/2918 18006KT P6SM SKC
FM282200 22008KT P6SM SKC
FM290300 19006KT P6SM SKC

Example: see airport list